Terminal Aerodrome Forecast
Issued by NWS

Home | Current Version | Previous Version | Text Only | Print | Product List | Glossary On
Versions: 1 2 3 4 5 6 7 8 9 10 11 12 13 14 15
000
FTUS43 KDTX 181123
TAFYIP
TAF
KYIP 181123Z 1812/1912 23011KT P6SM SCT250
     FM181400 24012G18KT P6SM BKN035
     FM181600 24014G24KT P6SM BKN040
     FM182000 27014G22KT P6SM BKN045
     FM190100 26008KT P6SM SCT040 SCT250=

USA.gov is the U.S. government's official web portal to all federal, state and local government web resources and services.